IGO5078 VAAH-VABB
Flight info
| Callsign | IGO5078 |
|---|---|
| Flight time | 0h 53m |
| Altitude | 33000 |
| Route | BVR1A BVR R458 BOFIN POKON2A |
| Aircraft | A21N/M-SDE2E3FGHIRWXY/LB1 |
Departure
| Time | 2026-05-08 05:27 |
|---|---|
| Airport | Sardar Vallabh Patel International Airport (VAAH) |
Arrival
| Time | 2026-05-08 06:21 |
|---|---|
| Airport | Chhatrapati Shivaji Maharaj International Airport (VABB) |
| Time | Latitude | Longitude | Altitude | Speed | Heading |
|---|---|---|---|---|---|
| 2026-05-08 04:53 | 23.07095 | 72.61926 | 187 ft | 0 kts | 44° |
| 2026-05-08 05:14 | 23.07087 | 72.61918 | 187 ft | 2 kts | 44° |
| 2026-05-08 05:15 | 23.07077 | 72.61906 | 188 ft | 2 kts | 63° |
| 2026-05-08 05:15 | 23.07073 | 72.61890 | 188 ft | 2 kts | 90° |
| 2026-05-08 05:15 | 23.07076 | 72.61874 | 188 ft | 2 kts | 117° |
| 2026-05-08 05:15 | 23.07081 | 72.61865 | 188 ft | 1 kts | 134° |
| 2026-05-08 05:16 | 23.07086 | 72.61861 | 187 ft | 0 kts | 136° |
| 2026-05-08 05:16 | 23.07086 | 72.61860 | 187 ft | 0 kts | 135° |
| 2026-05-08 05:19 | 23.07085 | 72.61861 | 187 ft | 0 kts | 135° |
| 2026-05-08 05:19 | 23.07082 | 72.61865 | 187 ft | 0 kts | 135° |
| 2026-05-08 05:19 | 23.07075 | 72.61872 | 188 ft | 1 kts | 135° |
| 2026-05-08 05:20 | 23.07062 | 72.61886 | 188 ft | 3 kts | 135° |
| 2026-05-08 05:20 | 23.07045 | 72.61905 | 188 ft | 4 kts | 133° |
| 2026-05-08 05:20 | 23.07024 | 72.61943 | 189 ft | 8 kts | 102° |
| 2026-05-08 05:20 | 23.07013 | 72.62019 | 189 ft | 11 kts | 109° |
| 2026-05-08 05:21 | 23.06956 | 72.62100 | 189 ft | 14 kts | 135° |
| 2026-05-08 05:21 | 23.06876 | 72.62187 | 189 ft | 17 kts | 135° |
| 2026-05-08 05:21 | 23.06885 | 72.62302 | 189 ft | 19 kts | 41° |
| 2026-05-08 05:21 | 23.06988 | 72.62408 | 189 ft | 21 kts | 44° |
| 2026-05-08 05:22 | 23.07099 | 72.62526 | 189 ft | 23 kts | 44° |
| 2026-05-08 05:22 | 23.07220 | 72.62657 | 186 ft | 26 kts | 45° |
| 2026-05-08 05:22 | 23.07354 | 72.62798 | 186 ft | 26 kts | 44° |
| 2026-05-08 05:22 | 23.07486 | 72.62938 | 186 ft | 25 kts | 45° |
| 2026-05-08 05:23 | 23.07607 | 72.63068 | 186 ft | 23 kts | 44° |
| 2026-05-08 05:23 | 23.07684 | 72.63216 | 187 ft | 21 kts | 75° |
| 2026-05-08 05:23 | 23.07722 | 72.63372 | 189 ft | 20 kts | 75° |
| 2026-05-08 05:23 | 23.07784 | 72.63507 | 189 ft | 20 kts | 44° |
| 2026-05-08 05:24 | 23.07884 | 72.63611 | 191 ft | 19 kts | 44° |
| 2026-05-08 05:24 | 23.07982 | 72.63714 | 192 ft | 19 kts | 45° |
| 2026-05-08 05:24 | 23.08083 | 72.63824 | 192 ft | 21 kts | 45° |
| 2026-05-08 05:24 | 23.08191 | 72.63941 | 192 ft | 22 kts | 45° |
| 2026-05-08 05:25 | 23.08306 | 72.64064 | 190 ft | 23 kts | 45° |
| 2026-05-08 05:25 | 23.08424 | 72.64191 | 192 ft | 23 kts | 44° |
| 2026-05-08 05:25 | 23.08545 | 72.64319 | 192 ft | 24 kts | 44° |
| 2026-05-08 05:25 | 23.08666 | 72.64447 | 195 ft | 23 kts | 45° |
| 2026-05-08 05:26 | 23.08778 | 72.64580 | 196 ft | 21 kts | 68° |
| 2026-05-08 05:26 | 23.08820 | 72.64597 | 196 ft | 11 kts | 246° |
| 2026-05-08 05:26 | 23.08753 | 72.64540 | 196 ft | 13 kts | 220° |
| 2026-05-08 05:26 | 23.08675 | 72.64462 | 195 ft | 20 kts | 224° |
| 2026-05-08 05:27 | 23.08425 | 72.64188 | 193 ft | 84 kts | 226° |
| 2026-05-08 05:27 | 23.07853 | 72.63580 | 191 ft | 142 kts | 224° |
| 2026-05-08 05:27 | 23.07019 | 72.62681 | 255 ft | 184 kts | 225° |
| 2026-05-08 05:27 | 23.06122 | 72.61707 | 902 ft | 180 kts | 225° |
| 2026-05-08 05:28 | 23.05233 | 72.60741 | 1541 ft | 182 kts | 226° |
| 2026-05-08 05:28 | 23.04347 | 72.59779 | 2146 ft | 180 kts | 226° |
| 2026-05-08 05:28 | 23.03413 | 72.58793 | 2399 ft | 191 kts | 225° |
| 2026-05-08 05:28 | 23.02422 | 72.57753 | 2644 ft | 203 kts | 225° |
| 2026-05-08 05:29 | 23.01361 | 72.56636 | 2895 ft | 216 kts | 226° |
| 2026-05-08 05:29 | 23.00244 | 72.55455 | 3080 ft | 234 kts | 226° |
| 2026-05-08 05:29 | 22.99034 | 72.54173 | 3360 ft | 250 kts | 226° |
| 2026-05-08 05:29 | 22.97730 | 72.52790 | 3676 ft | 265 kts | 226° |
| 2026-05-08 05:30 | 22.96393 | 72.51373 | 4205 ft | 271 kts | 226° |
| 2026-05-08 05:30 | 22.95065 | 72.49967 | 4812 ft | 273 kts | 226° |
| 2026-05-08 05:30 | 22.93610 | 72.48589 | 5406 ft | 278 kts | 215° |
| 2026-05-08 05:30 | 22.91827 | 72.47650 | 5999 ft | 284 kts | 198° |
| 2026-05-08 05:31 | 22.89945 | 72.47122 | 6604 ft | 288 kts | 194° |
| 2026-05-08 05:31 | 22.87941 | 72.46645 | 7252 ft | 290 kts | 191° |
| 2026-05-08 05:31 | 22.85970 | 72.46183 | 8005 ft | 288 kts | 191° |
| 2026-05-08 05:31 | 22.84015 | 72.45725 | 8623 ft | 290 kts | 191° |
| 2026-05-08 05:32 | 22.82011 | 72.45246 | 9199 ft | 294 kts | 192° |
| 2026-05-08 05:32 | 22.79990 | 72.44756 | 9774 ft | 298 kts | 192° |
| 2026-05-08 05:32 | 22.77939 | 72.44253 | 10263 ft | 304 kts | 192° |
| 2026-05-08 05:32 | 22.75811 | 72.43729 | 10516 ft | 319 kts | 192° |
| 2026-05-08 05:33 | 22.73592 | 72.43180 | 10795 ft | 332 kts | 192° |
| 2026-05-08 05:33 | 22.71299 | 72.42612 | 11277 ft | 338 kts | 192° |
| 2026-05-08 05:33 | 22.69009 | 72.42043 | 11840 ft | 340 kts | 192° |
| 2026-05-08 05:33 | 22.66691 | 72.41469 | 12381 ft | 343 kts | 192° |
| 2026-05-08 05:34 | 22.64340 | 72.40887 | 12913 ft | 346 kts | 192° |
| 2026-05-08 05:34 | 22.61982 | 72.40303 | 13438 ft | 349 kts | 192° |
| 2026-05-08 05:34 | 22.59579 | 72.39710 | 13961 ft | 352 kts | 192° |
| 2026-05-08 05:34 | 22.57169 | 72.39118 | 14474 ft | 355 kts | 192° |
| 2026-05-08 05:35 | 22.54731 | 72.38519 | 14982 ft | 358 kts | 193° |
| 2026-05-08 05:35 | 22.52314 | 72.37924 | 15473 ft | 361 kts | 193° |
| 2026-05-08 05:35 | 22.49825 | 72.37312 | 15968 ft | 364 kts | 193° |
| 2026-05-08 05:35 | 22.47323 | 72.36695 | 16454 ft | 366 kts | 193° |
| 2026-05-08 05:36 | 22.44826 | 72.36080 | 16931 ft | 369 kts | 193° |
| 2026-05-08 05:36 | 22.42309 | 72.35460 | 17399 ft | 372 kts | 193° |
| 2026-05-08 05:36 | 22.39772 | 72.34834 | 17861 ft | 375 kts | 193° |
| 2026-05-08 05:36 | 22.37199 | 72.34189 | 18318 ft | 377 kts | 193° |
| 2026-05-08 05:37 | 22.34625 | 72.33542 | 18761 ft | 380 kts | 193° |
| 2026-05-08 05:37 | 22.32048 | 72.32898 | 19197 ft | 383 kts | 193° |
| 2026-05-08 05:37 | 22.29451 | 72.32253 | 19629 ft | 385 kts | 193° |
| 2026-05-08 05:37 | 22.26771 | 72.31592 | 20064 ft | 388 kts | 193° |
| 2026-05-08 05:38 | 22.24126 | 72.30940 | 20488 ft | 390 kts | 193° |
| 2026-05-08 05:38 | 22.21448 | 72.30281 | 20909 ft | 392 kts | 193° |
| 2026-05-08 05:38 | 22.18776 | 72.29625 | 21321 ft | 395 kts | 193° |
| 2026-05-08 05:38 | 22.16344 | 72.29028 | 21686 ft | 397 kts | 193° |
| 2026-05-08 05:39 | 22.13533 | 72.28338 | 22094 ft | 399 kts | 193° |
| 2026-05-08 05:39 | 22.10778 | 72.27663 | 22490 ft | 402 kts | 193° |
| 2026-05-08 05:39 | 22.08040 | 72.26991 | 22875 ft | 404 kts | 193° |
| 2026-05-08 05:39 | 22.05255 | 72.26308 | 23260 ft | 406 kts | 193° |
| 2026-05-08 05:40 | 22.02501 | 72.25634 | 23641 ft | 408 kts | 193° |
| 2026-05-08 05:40 | 21.99697 | 72.24948 | 24024 ft | 410 kts | 194° |
| 2026-05-08 05:40 | 21.96927 | 72.24270 | 24393 ft | 412 kts | 194° |
| 2026-05-08 05:40 | 21.94078 | 72.23573 | 24763 ft | 413 kts | 194° |
| 2026-05-08 05:41 | 21.91296 | 72.22893 | 25117 ft | 415 kts | 194° |
| 2026-05-08 05:41 | 21.88510 | 72.22214 | 25457 ft | 417 kts | 194° |
| 2026-05-08 05:41 | 21.85666 | 72.21523 | 25787 ft | 419 kts | 194° |
| 2026-05-08 05:41 | 21.82807 | 72.20828 | 26116 ft | 420 kts | 194° |
| 2026-05-08 05:42 | 21.79913 | 72.20122 | 26439 ft | 422 kts | 194° |
| 2026-05-08 05:42 | 21.77039 | 72.19540 | 26734 ft | 425 kts | 187° |
| 2026-05-08 05:42 | 21.74060 | 72.19445 | 27028 ft | 428 kts | 177° |
| 2026-05-08 05:42 | 21.71065 | 72.19903 | 27328 ft | 431 kts | 168° |
| 2026-05-08 05:43 | 21.68116 | 72.20646 | 27629 ft | 432 kts | 167° |
| 2026-05-08 05:43 | 21.65206 | 72.21433 | 27907 ft | 434 kts | 167° |
| 2026-05-08 05:43 | 21.62260 | 72.22230 | 28186 ft | 436 kts | 167° |
| 2026-05-08 05:43 | 21.59305 | 72.23021 | 28467 ft | 437 kts | 167° |
| 2026-05-08 05:44 | 21.56355 | 72.23803 | 28743 ft | 439 kts | 167° |
| 2026-05-08 05:44 | 21.53357 | 72.24592 | 28860 ft | 440 kts | 167° |
| 2026-05-08 05:44 | 21.50398 | 72.25367 | 28866 ft | 440 kts | 167° |
| 2026-05-08 05:45 | 21.44436 | 72.26923 | 28872 ft | 440 kts | 167° |
| 2026-05-08 05:45 | 21.38473 | 72.28476 | 28873 ft | 439 kts | 167° |
| 2026-05-08 05:46 | 21.32495 | 72.30032 | 28873 ft | 439 kts | 167° |
| 2026-05-08 05:46 | 21.26522 | 72.31585 | 28873 ft | 440 kts | 167° |
| 2026-05-08 05:47 | 21.20571 | 72.33131 | 28873 ft | 440 kts | 167° |
| 2026-05-08 05:47 | 21.14601 | 72.34681 | 28865 ft | 440 kts | 167° |
| 2026-05-08 05:48 | 21.08621 | 72.36233 | 28857 ft | 439 kts | 167° |
| 2026-05-08 05:48 | 21.02688 | 72.37770 | 28852 ft | 435 kts | 167° |
| 2026-05-08 05:49 | 20.96859 | 72.39273 | 28849 ft | 423 kts | 166° |
| 2026-05-08 05:49 | 20.91079 | 72.40766 | 28847 ft | 423 kts | 166° |
| 2026-05-08 05:50 | 20.85331 | 72.42236 | 28847 ft | 423 kts | 167° |
| 2026-05-08 05:50 | 20.79573 | 72.43708 | 28847 ft | 423 kts | 166° |
| 2026-05-08 05:51 | 20.73759 | 72.44960 | 28842 ft | 423 kts | 176° |
| 2026-05-08 05:51 | 20.67887 | 72.44398 | 28843 ft | 423 kts | 195° |
| 2026-05-08 05:52 | 20.62326 | 72.42270 | 28847 ft | 423 kts | 201° |
| 2026-05-08 05:52 | 20.56786 | 72.39967 | 28847 ft | 423 kts | 201° |
| 2026-05-08 05:53 | 20.51263 | 72.37695 | 28847 ft | 423 kts | 200° |
| 2026-05-08 05:53 | 20.45754 | 72.35445 | 28847 ft | 423 kts | 200° |
| 2026-05-08 05:54 | 20.40209 | 72.33186 | 28847 ft | 423 kts | 200° |
| 2026-05-08 05:54 | 20.34675 | 72.30936 | 28847 ft | 423 kts | 200° |
| 2026-05-08 05:55 | 20.29172 | 72.28700 | 28847 ft | 423 kts | 200° |
| 2026-05-08 05:55 | 20.23639 | 72.26454 | 28847 ft | 423 kts | 200° |
| 2026-05-08 05:56 | 20.18113 | 72.24212 | 28731 ft | 418 kts | 200° |
| 2026-05-08 05:56 | 20.15390 | 72.23108 | 28271 ft | 415 kts | 200° |
| 2026-05-08 05:56 | 20.12684 | 72.22011 | 27672 ft | 415 kts | 200° |
| 2026-05-08 05:56 | 20.09986 | 72.20918 | 27122 ft | 412 kts | 200° |
| 2026-05-08 05:57 | 20.07367 | 72.19858 | 26618 ft | 409 kts | 200° |
| 2026-05-08 05:57 | 20.04701 | 72.18779 | 26106 ft | 407 kts | 200° |
| 2026-05-08 05:57 | 20.02095 | 72.17725 | 25601 ft | 404 kts | 200° |
| 2026-05-08 05:57 | 19.99448 | 72.16655 | 25088 ft | 401 kts | 200° |
| 2026-05-08 05:58 | 19.96883 | 72.15618 | 24589 ft | 398 kts | 200° |
| 2026-05-08 05:58 | 19.94281 | 72.14568 | 24079 ft | 396 kts | 200° |
| 2026-05-08 05:58 | 19.91699 | 72.13525 | 23574 ft | 393 kts | 200° |
| 2026-05-08 05:58 | 19.89133 | 72.12490 | 23072 ft | 390 kts | 200° |
| 2026-05-08 05:59 | 19.86603 | 72.11474 | 22576 ft | 388 kts | 200° |
| 2026-05-08 05:59 | 19.84065 | 72.10453 | 22078 ft | 385 kts | 200° |
| 2026-05-08 05:59 | 19.81561 | 72.09460 | 21583 ft | 383 kts | 197° |
| 2026-05-08 05:59 | 19.78942 | 72.08981 | 21037 ft | 380 kts | 179° |
| 2026-05-08 06:00 | 19.76333 | 72.09407 | 20533 ft | 376 kts | 161° |
| 2026-05-08 06:00 | 19.74020 | 72.10653 | 20040 ft | 372 kts | 143° |
| 2026-05-08 06:00 | 19.72031 | 72.12434 | 19575 ft | 369 kts | 137° |
| 2026-05-08 06:00 | 19.70134 | 72.14271 | 19080 ft | 367 kts | 137° |
| 2026-05-08 06:01 | 19.68264 | 72.16092 | 18594 ft | 365 kts | 137° |
| 2026-05-08 06:01 | 19.66364 | 72.17928 | 18111 ft | 363 kts | 137° |
| 2026-05-08 06:01 | 19.64482 | 72.19734 | 17633 ft | 360 kts | 137° |
| 2026-05-08 06:01 | 19.62621 | 72.21513 | 17159 ft | 358 kts | 137° |
| 2026-05-08 06:02 | 19.60761 | 72.23284 | 16684 ft | 356 kts | 137° |
| 2026-05-08 06:02 | 19.58931 | 72.25024 | 16215 ft | 354 kts | 137° |
| 2026-05-08 06:02 | 19.57081 | 72.26781 | 15740 ft | 351 kts | 137° |
| 2026-05-08 06:02 | 19.55265 | 72.28503 | 15272 ft | 349 kts | 137° |
| 2026-05-08 06:03 | 19.53445 | 72.30229 | 14802 ft | 347 kts | 137° |
| 2026-05-08 06:03 | 19.51631 | 72.31948 | 14332 ft | 345 kts | 137° |
| 2026-05-08 06:03 | 19.49834 | 72.33652 | 13866 ft | 343 kts | 137° |
| 2026-05-08 06:03 | 19.48055 | 72.35336 | 13403 ft | 341 kts | 137° |
| 2026-05-08 06:04 | 19.46287 | 72.37011 | 12942 ft | 339 kts | 137° |
| 2026-05-08 06:04 | 19.44530 | 72.38673 | 12483 ft | 337 kts | 137° |
| 2026-05-08 06:04 | 19.42761 | 72.40348 | 12019 ft | 335 kts | 137° |
| 2026-05-08 06:04 | 19.41022 | 72.41993 | 11562 ft | 333 kts | 137° |
| 2026-05-08 06:05 | 19.39296 | 72.43625 | 11108 ft | 331 kts | 137° |
| 2026-05-08 06:05 | 19.37571 | 72.45255 | 10869 ft | 328 kts | 137° |
| 2026-05-08 06:05 | 19.35858 | 72.46874 | 10856 ft | 330 kts | 137° |
| 2026-05-08 06:05 | 19.34136 | 72.48502 | 10853 ft | 331 kts | 137° |
| 2026-05-08 06:06 | 19.32412 | 72.50131 | 10852 ft | 331 kts | 137° |
| 2026-05-08 06:06 | 19.30687 | 72.51760 | 10851 ft | 331 kts | 137° |
| 2026-05-08 06:06 | 19.28947 | 72.53403 | 10839 ft | 330 kts | 137° |
| 2026-05-08 06:06 | 19.27226 | 72.55026 | 10845 ft | 331 kts | 137° |
| 2026-05-08 06:07 | 19.25489 | 72.56665 | 10848 ft | 331 kts | 137° |
| 2026-05-08 06:07 | 19.23762 | 72.58303 | 10849 ft | 330 kts | 135° |
| 2026-05-08 06:07 | 19.22341 | 72.60206 | 10708 ft | 325 kts | 117° |
| 2026-05-08 06:07 | 19.21592 | 72.62434 | 10294 ft | 320 kts | 98° |
| 2026-05-08 06:08 | 19.21461 | 72.64770 | 10115 ft | 309 kts | 89° |
| 2026-05-08 06:08 | 19.21469 | 72.67007 | 9931 ft | 299 kts | 89° |
| 2026-05-08 06:08 | 19.21488 | 72.69178 | 9666 ft | 293 kts | 89° |
| 2026-05-08 06:08 | 19.21497 | 72.71342 | 9268 ft | 291 kts | 89° |
| 2026-05-08 06:09 | 19.21498 | 72.73477 | 8864 ft | 290 kts | 89° |
| 2026-05-08 06:09 | 19.21493 | 72.75631 | 8465 ft | 289 kts | 89° |
| 2026-05-08 06:09 | 19.21485 | 72.77737 | 8073 ft | 287 kts | 89° |
| 2026-05-08 06:09 | 19.21473 | 72.79865 | 7674 ft | 286 kts | 89° |
| 2026-05-08 06:10 | 19.21461 | 72.81973 | 7277 ft | 285 kts | 89° |
| 2026-05-08 06:10 | 19.21448 | 72.84064 | 6882 ft | 284 kts | 89° |
| 2026-05-08 06:10 | 19.21434 | 72.86157 | 6485 ft | 282 kts | 89° |
| 2026-05-08 06:10 | 19.21420 | 72.88233 | 6091 ft | 281 kts | 89° |
| 2026-05-08 06:11 | 19.21406 | 72.90310 | 5696 ft | 280 kts | 89° |
| 2026-05-08 06:11 | 19.21391 | 72.92388 | 5302 ft | 279 kts | 89° |
| 2026-05-08 06:11 | 19.21376 | 72.94417 | 4917 ft | 278 kts | 89° |
| 2026-05-08 06:11 | 19.21361 | 72.96468 | 4529 ft | 277 kts | 89° |
| 2026-05-08 06:12 | 19.21346 | 72.98495 | 4148 ft | 276 kts | 89° |
| 2026-05-08 06:12 | 19.21330 | 73.00543 | 3999 ft | 274 kts | 89° |
| 2026-05-08 06:12 | 19.21315 | 73.02565 | 3994 ft | 276 kts | 89° |
| 2026-05-08 06:12 | 19.21299 | 73.04608 | 3992 ft | 276 kts | 89° |
| 2026-05-08 06:13 | 19.21282 | 73.06654 | 3985 ft | 267 kts | 89° |
| 2026-05-08 06:13 | 19.21265 | 73.08554 | 3984 ft | 254 kts | 89° |
| 2026-05-08 06:13 | 19.21250 | 73.10432 | 3987 ft | 254 kts | 89° |
| 2026-05-08 06:13 | 19.21235 | 73.12331 | 3988 ft | 254 kts | 89° |
| 2026-05-08 06:14 | 19.21196 | 73.14175 | 3840 ft | 251 kts | 96° |
| 2026-05-08 06:14 | 19.20550 | 73.15886 | 3386 ft | 256 kts | 132° |
| 2026-05-08 06:14 | 19.19070 | 73.16862 | 3003 ft | 254 kts | 168° |
| 2026-05-08 06:14 | 19.17350 | 73.16867 | 2895 ft | 239 kts | 197° |
| 2026-05-08 06:15 | 19.15914 | 73.16109 | 2883 ft | 229 kts | 224° |
| 2026-05-08 06:15 | 19.14978 | 73.14764 | 2899 ft | 227 kts | 243° |
| 2026-05-08 06:15 | 19.14228 | 73.13287 | 2893 ft | 226 kts | 244° |
| 2026-05-08 06:15 | 19.13491 | 73.11804 | 2891 ft | 226 kts | 244° |
| 2026-05-08 06:16 | 19.12746 | 73.10330 | 2890 ft | 226 kts | 243° |
| 2026-05-08 06:16 | 19.11992 | 73.08862 | 2890 ft | 226 kts | 243° |
| 2026-05-08 06:16 | 19.11235 | 73.07401 | 2890 ft | 226 kts | 243° |
| 2026-05-08 06:16 | 19.10474 | 73.05942 | 2890 ft | 226 kts | 243° |
| 2026-05-08 06:17 | 19.09218 | 73.02938 | 2799 ft | 225 kts | 261° |
| 2026-05-08 06:17 | 19.09049 | 73.01283 | 2537 ft | 223 kts | 270° |
| 2026-05-08 06:17 | 19.09036 | 72.99667 | 2265 ft | 219 kts | 272° |
| 2026-05-08 06:18 | 19.09040 | 72.98090 | 2078 ft | 208 kts | 271° |
| 2026-05-08 06:18 | 19.09024 | 72.96558 | 1790 ft | 199 kts | 270° |
| 2026-05-08 06:18 | 19.08998 | 72.95149 | 1513 ft | 184 kts | 270° |
| 2026-05-08 06:18 | 19.08975 | 72.93830 | 1235 ft | 172 kts | 270° |
| 2026-05-08 06:19 | 19.08956 | 72.92610 | 984 ft | 159 kts | 270° |
| 2026-05-08 06:19 | 19.08939 | 72.91463 | 764 ft | 154 kts | 270° |
| 2026-05-08 06:19 | 19.08923 | 72.90334 | 560 ft | 153 kts | 270° |
| 2026-05-08 06:19 | 19.08900 | 72.89204 | 369 ft | 152 kts | 269° |
| 2026-05-08 06:20 | 19.08882 | 72.88082 | 173 ft | 152 kts | 270° |
| 2026-05-08 06:20 | 19.08871 | 72.86964 | 34 ft | 147 kts | 271° |
| 2026-05-08 06:20 | 19.08861 | 72.86009 | 32 ft | 105 kts | 269° |
| 2026-05-08 06:20 | 19.08852 | 72.85410 | 25 ft | 55 kts | 268° |
| 2026-05-08 06:21 | 19.08859 | 72.85165 | 25 ft | 22 kts | 298° |
| 2026-05-08 06:21 | 19.08982 | 72.85120 | 25 ft | 17 kts | 8° |
| 2026-05-08 06:21 | 19.09049 | 72.85127 | 25 ft | 0 kts | 1° |
| 2026-05-08 06:21 | 19.09050 | 72.85127 | 25 ft | 0 kts | 1° |
| 2026-05-08 06:22 | 19.09053 | 72.85127 | 25 ft | 0 kts | 1° |
| 2026-05-08 06:22 | 19.09057 | 72.85127 | 25 ft | 0 kts | 2° |
| 2026-05-08 06:22 | 19.09060 | 72.85127 | 25 ft | 0 kts | 5° |
| 2026-05-08 06:22 | 19.09063 | 72.85128 | 26 ft | 0 kts | 10° |
| 2026-05-08 06:23 | 19.09068 | 72.85130 | 26 ft | 1 kts | 25° |
| 2026-05-08 06:23 | 19.09077 | 72.85136 | 26 ft | 2 kts | 42° |
| 2026-05-08 06:23 | 19.09087 | 72.85160 | 27 ft | 4 kts | 77° |
| 2026-05-08 06:23 | 19.09092 | 72.85203 | 28 ft | 7 kts | 87° |
| 2026-05-08 06:24 | 19.09094 | 72.85265 | 29 ft | 9 kts | 88° |
| 2026-05-08 06:24 | 19.09103 | 72.85342 | 30 ft | 11 kts | 55° |
| 2026-05-08 06:24 | 19.09149 | 72.85359 | 31 ft | 0 kts | 1° |